createdAt,value
2022-08-01T00:02:28.435Z,45.51
2022-08-01T00:04:59.455Z,45.81
2022-08-01T00:07:30.681Z,45.60
2022-08-01T00:10:01.251Z,45.97
2022-08-01T00:12:33.051Z,46.02
2022-08-01T00:15:04.099Z,45.64
2022-08-01T00:17:37.325Z,45.62
2022-08-01T00:20:14.403Z,46.04
2022-08-01T00:22:45.790Z,46.41
2022-08-01T00:25:17.037Z,45.69
2022-08-01T00:27:48.573Z,45.63
2022-08-01T00:30:20.184Z,46.15
2022-08-01T00:32:53.480Z,46.07
2022-08-01T00:35:23.887Z,46.08
2022-08-01T00:37:55.319Z,45.76
2022-08-01T00:40:26.716Z,45.69
2022-08-01T00:42:57.737Z,45.64
2022-08-01T00:45:28.722Z,46.24
2022-08-01T00:48:02.080Z,46.12
2022-08-01T00:50:33.571Z,45.83
2022-08-01T00:53:06.059Z,46.47
2022-08-01T00:55:38.018Z,46.04
2022-08-01T00:58:09.621Z,45.81
2022-08-01T01:00:52.831Z,46.51
2022-08-01T01:03:56.373Z,46.48
2022-08-01T01:06:35.594Z,46.42
2022-08-01T01:09:37.173Z,45.94
2022-08-01T01:12:22.876Z,46.28
2022-08-01T01:15:09.887Z,46.14
2022-08-01T01:17:51.640Z,46.47
2022-08-01T01:20:32.417Z,46.57
2022-08-01T01:23:22.521Z,46.31
2022-08-01T01:26:40.898Z,46.57
2022-08-01T01:29:21.641Z,46.11
2022-08-01T01:32:01.459Z,46.10
2022-08-01T01:34:35.711Z,46.17
2022-08-01T01:37:14.281Z,46.05
2022-08-01T01:39:48.383Z,46.28
2022-08-01T01:42:28.488Z,46.15
2022-08-01T01:45:05.078Z,46.56
2022-08-01T01:47:37.268Z,46.03
2022-08-01T01:50:12.730Z,46.70
2022-08-01T01:52:48.311Z,46.73
2022-08-01T01:55:23.826Z,46.38
2022-08-01T01:57:57.694Z,46.64
2022-08-01T02:00:32.958Z,46.64
2022-08-01T02:03:07.428Z,46.60
2022-08-01T02:05:41.010Z,46.64
2022-08-01T02:08:14.589Z,46.28
2022-08-01T02:11:07.452Z,46.93
2022-08-01T02:13:41.853Z,46.81
2022-08-01T02:16:16.003Z,46.25
2022-08-01T02:18:47.753Z,46.89
2022-08-01T02:21:27.045Z,46.54
2022-08-01T02:24:06.132Z,46.35
2022-08-01T02:26:42.439Z,46.44
2022-08-01T02:29:21.309Z,46.64
2022-08-01T02:31:58.223Z,46.96
2022-08-01T02:34:35.362Z,46.92
2022-08-01T02:37:10.038Z,46.83
2022-08-01T02:39:43.587Z,46.51
2022-08-01T02:42:19.325Z,46.48
2022-08-01T02:44:53.763Z,46.63
2022-08-01T02:47:31.405Z,46.24
2022-08-01T02:50:04.566Z,46.53
2022-08-01T02:52:37.473Z,46.96
2022-08-01T02:55:11.065Z,46.68
2022-08-01T02:57:51.788Z,46.37
2022-08-01T03:00:25.312Z,46.59
2022-08-01T03:03:00.713Z,46.31
2022-08-01T03:05:33.505Z,46.68
2022-08-01T03:08:05.872Z,46.59
2022-08-01T03:10:50.740Z,46.91
2022-08-01T03:13:24.072Z,47.24
2022-08-01T03:15:59.150Z,46.62
2022-08-01T03:18:34.516Z,46.38
2022-08-01T03:21:08.712Z,47.00
2022-08-01T03:23:42.689Z,46.97
2022-08-01T03:26:15.477Z,47.11
2022-08-01T03:28:50.476Z,47.22
2022-08-01T03:31:23.078Z,46.75
2022-08-01T03:33:56.251Z,47.16
2022-08-01T03:36:32.466Z,47.26
2022-08-01T03:39:09.898Z,46.60
2022-08-01T03:41:52.517Z,46.75
2022-08-01T03:44:33.309Z,47.17
2022-08-01T03:47:11.613Z,47.18
2022-08-01T03:49:48.805Z,47.10
2022-08-01T03:52:20.573Z,47.34
2022-08-01T03:54:56.893Z,47.31
2022-08-01T03:57:35.955Z,46.77
2022-08-01T04:00:11.220Z,46.68
2022-08-01T04:02:43.559Z,47.25
2022-08-01T04:05:16.533Z,46.95
2022-08-01T04:07:57.083Z,46.71
2022-08-01T04:10:29.233Z,46.78
2022-08-01T04:13:00.318Z,47.04
2022-08-01T04:15:31.580Z,46.83
2022-08-01T04:18:02.499Z,47.51
2022-08-01T04:20:35.564Z,47.39
2022-08-01T04:23:10.139Z,46.87
2022-08-01T04:25:44.297Z,47.02
2022-08-01T04:28:17.974Z,46.98
2022-08-01T04:30:57.400Z,46.82
2022-08-01T04:33:38.097Z,46.89
2022-08-01T04:36:16.466Z,47.33
2022-08-01T04:38:50.318Z,47.04
2022-08-01T04:41:22.155Z,47.01
2022-08-01T04:43:53.817Z,46.85
2022-08-01T04:46:25.496Z,47.35
2022-08-01T04:48:58.489Z,47.02
2022-08-01T04:51:32.241Z,47.33
2022-08-01T04:54:03.939Z,46.88
2022-08-01T04:56:36.306Z,47.46
2022-08-01T04:59:24.004Z,47.14
2022-08-01T05:01:57.002Z,47.42
2022-08-01T05:04:28.125Z,47.20
2022-08-01T05:07:01.425Z,47.62
2022-08-01T05:09:32.988Z,47.12
2022-08-01T05:12:05.103Z,47.09
2022-08-01T05:14:36.487Z,47.44
2022-08-01T05:17:11.420Z,46.91
2022-08-01T05:19:45.051Z,47.36
2022-08-01T05:22:18.744Z,47.71
2022-08-01T05:24:49.968Z,47.01
2022-08-01T05:27:21.042Z,47.54
2022-08-01T05:29:52.255Z,47.38
2022-08-01T05:32:23.634Z,47.55
2022-08-01T05:34:54.359Z,46.91
2022-08-01T05:37:27.491Z,46.98
2022-08-01T05:39:58.854Z,47.45
2022-08-01T05:42:30.347Z,47.58
2022-08-01T05:45:01.972Z,46.96
2022-08-01T05:47:32.859Z,46.82
2022-08-01T05:50:04.147Z,47.04
2022-08-01T05:52:37.557Z,47.12
2022-08-01T05:55:10.844Z,46.93
2022-08-01T05:57:41.762Z,46.88
2022-08-01T06:00:15.036Z,47.37
2022-08-01T06:02:47.230Z,47.12
2022-08-01T06:05:18.521Z,47.20
2022-08-01T06:07:50.628Z,47.27
2022-08-01T06:10:21.287Z,47.31
2022-08-01T06:12:52.290Z,46.79
2022-08-01T06:15:24.394Z,47.06
2022-08-01T06:17:55.428Z,47.26
2022-08-01T06:20:26.025Z,46.98
2022-08-01T06:22:58.099Z,46.65
2022-08-01T06:25:31.097Z,47.40
2022-08-01T06:28:01.726Z,47.30
2022-08-01T06:30:33.823Z,47.08
2022-08-01T06:33:05.292Z,46.41
2022-08-01T06:35:36.607Z,47.11
2022-08-01T06:38:09.784Z,47.04
2022-08-01T06:40:40.683Z,46.81
2022-08-01T06:43:12.991Z,46.30
2022-08-01T06:45:43.958Z,46.57
2022-08-01T06:48:15.025Z,46.38
2022-08-01T06:50:46.459Z,46.29
2022-08-01T06:53:19.950Z,46.75
2022-08-01T06:55:51.662Z,46.25
2022-08-01T06:58:22.866Z,46.39
2022-08-01T07:01:03.488Z,46.68
2022-08-01T07:03:54.038Z,46.23
2022-08-01T07:06:28.229Z,46.13
2022-08-01T07:09:08.462Z,46.56
2022-08-01T07:11:43.744Z,46.57
2022-08-01T07:14:14.438Z,45.95
2022-08-01T07:16:45.396Z,46.39
2022-08-01T07:19:16.428Z,46.35
2022-08-01T07:21:50.150Z,46.17
2022-08-01T07:24:24.696Z,45.82
2022-08-01T07:26:58.998Z,46.38
2022-08-01T07:29:49.650Z,46.28
2022-08-01T07:32:20.868Z,46.16
2022-08-01T07:34:51.813Z,46.28
2022-08-01T07:37:47.780Z,46.05
2022-08-01T07:40:17.627Z,45.58
2022-08-01T07:42:48.480Z,45.98
2022-08-01T07:45:20.437Z,45.70
2022-08-01T07:47:51.837Z,45.60
2022-08-01T07:50:22.787Z,45.56
2022-08-01T07:52:53.789Z,45.77
2022-08-01T07:55:26.597Z,45.37
2022-08-01T07:57:58.363Z,45.80
2022-08-01T08:00:30.692Z,45.87
2022-08-01T08:03:02.096Z,45.80
2022-08-01T08:05:58.949Z,45.22
2022-08-01T08:08:25.887Z,45.73
2022-08-01T08:10:59.253Z,45.73
2022-08-01T08:13:29.701Z,45.52
2022-08-01T08:16:01.902Z,45.62
2022-08-01T08:18:32.805Z,45.11
2022-08-01T08:21:06.766Z,45.45
2022-08-01T08:23:54.618Z,44.97
2022-08-01T08:26:28.895Z,45.27
2022-08-01T08:28:59.573Z,45.00
2022-08-01T08:31:52.268Z,44.96
2022-08-01T08:34:22.115Z,44.96
2022-08-01T08:36:54.296Z,45.33
2022-08-01T08:39:25.278Z,45.04
2022-08-01T08:41:58.752Z,45.10
2022-08-01T08:44:29.791Z,45.00
2022-08-01T08:47:06.702Z,45.06
2022-08-01T08:49:43.637Z,44.85
2022-08-01T08:52:16.606Z,45.33
2022-08-01T08:54:49.857Z,45.35
2022-08-01T08:57:24.587Z,44.62
2022-08-01T08:59:56.764Z,45.10
2022-08-01T09:02:28.501Z,45.00
2022-08-01T09:04:59.996Z,45.11
2022-08-01T09:07:31.270Z,44.97
2022-08-01T09:10:05.852Z,44.83
2022-08-01T09:12:40.945Z,44.89
2022-08-01T09:15:13.468Z,44.51
2022-08-01T09:17:45.155Z,44.27
2022-08-01T09:20:29.145Z,44.74
2022-08-01T09:23:00.621Z,44.28
2022-08-01T09:25:46.167Z,44.21
2022-08-01T09:28:21.255Z,44.26
2022-08-01T09:30:53.370Z,44.62
2022-08-01T09:33:34.877Z,44.22
2022-08-01T09:36:08.106Z,44.23
2022-08-01T09:38:47.781Z,44.53
2022-08-01T09:41:37.447Z,44.70
2022-08-01T09:44:13.323Z,44.59
2022-08-01T09:46:55.726Z,44.59
2022-08-01T09:49:49.669Z,44.63
2022-08-01T09:52:29.348Z,44.39
2022-08-01T09:55:02.322Z,44.55
2022-08-01T09:57:34.013Z,44.18
2022-08-01T10:00:44.724Z,44.58
2022-08-01T10:03:28.122Z,44.20
2022-08-01T10:06:00.325Z,44.56
2022-08-01T10:08:31.566Z,43.91
2022-08-01T10:11:16.510Z,44.48
2022-08-01T10:13:48.356Z,44.35
2022-08-01T10:16:24.433Z,44.54
2022-08-01T10:18:56.836Z,43.99
2022-08-01T10:21:56.202Z,44.49
2022-08-01T10:24:25.174Z,44.53
2022-08-01T10:27:08.380Z,43.96
2022-08-01T10:29:59.104Z,44.57
2022-08-01T10:32:40.047Z,43.98
2022-08-01T10:35:17.636Z,44.22
2022-08-01T10:38:10.611Z,44.54
2022-08-01T10:40:46.409Z,43.96
2022-08-01T10:43:21.966Z,43.98
2022-08-01T10:45:55.028Z,44.48
2022-08-01T10:48:38.960Z,44.39
2022-08-01T10:51:18.417Z,44.38
2022-08-01T10:53:56.912Z,44.48
2022-08-01T10:56:42.146Z,44.24
2022-08-01T10:59:14.287Z,44.12
2022-08-01T11:01:45.926Z,44.24
2022-08-01T11:04:23.700Z,44.58
2022-08-01T11:07:09.966Z,44.50
2022-08-01T11:09:51.749Z,43.99
2022-08-01T11:12:25.093Z,43.99
2022-08-01T11:15:31.166Z,44.10
2022-08-01T11:18:08.747Z,44.21
2022-08-01T11:21:57.763Z,44.15
2022-08-01T11:23:55.514Z,44.50
2022-08-01T11:26:30.101Z,44.17
2022-08-01T11:29:22.838Z,43.75
2022-08-01T11:31:55.452Z,44.46
2022-08-01T11:34:59.805Z,43.92
2022-08-01T11:37:33.378Z,44.29
2022-08-01T11:40:23.062Z,44.30
2022-08-01T11:43:22.112Z,44.46
2022-08-01T11:45:54.641Z,44.41
2022-08-01T11:48:28.410Z,44.11
2022-08-01T11:51:02.066Z,43.84
2022-08-01T11:53:36.741Z,44.30
2022-08-01T11:56:08.181Z,43.82
2022-08-01T11:58:39.126Z,44.64
2022-08-01T12:01:18.729Z,44.24
2022-08-01T12:03:49.801Z,44.24
2022-08-01T12:06:32.575Z,44.14
2022-08-01T12:09:27.095Z,43.91
2022-08-01T12:11:58.197Z,43.96
2022-08-01T12:14:29.076Z,44.50
2022-08-01T12:16:59.602Z,44.30
2022-08-01T12:19:30.665Z,44.47
2022-08-01T12:22:14.035Z,43.90
2022-08-01T12:24:47.565Z,44.49
2022-08-01T12:27:30.450Z,44.43
2022-08-01T12:30:02.374Z,44.42
2022-08-01T12:32:38.723Z,44.61
2022-08-01T12:35:18.385Z,43.72
2022-08-01T12:37:51.586Z,44.02
2022-08-01T12:40:28.021Z,44.14
2022-08-01T12:43:01.470Z,44.57
2022-08-01T12:45:36.371Z,44.23
2022-08-01T12:48:15.112Z,44.65
2022-08-01T12:50:49.560Z,44.04
2022-08-01T12:53:21.911Z,44.28
2022-08-01T12:56:00.037Z,44.61
2022-08-01T12:58:37.704Z,44.00
2022-08-01T13:01:12.584Z,44.51
2022-08-01T13:04:00.621Z,44.09
2022-08-01T13:06:37.069Z,44.13
2022-08-01T13:09:12.017Z,44.09
2022-08-01T13:11:56.154Z,44.07
2022-08-01T13:14:35.675Z,44.40
2022-08-01T13:17:14.811Z,44.21
2022-08-01T13:19:49.132Z,44.48
2022-08-01T13:22:20.159Z,44.50
2022-08-01T13:24:51.155Z,44.57
2022-08-01T13:27:31.608Z,44.47
2022-08-01T13:30:15.966Z,44.20
2022-08-01T13:32:48.046Z,44.21
2022-08-01T13:35:24.209Z,44.54
2022-08-01T13:37:55.791Z,44.58
2022-08-01T13:40:32.070Z,44.84
2022-08-01T13:43:04.555Z,44.30
2022-08-01T13:45:35.952Z,44.81
2022-08-01T13:48:12.823Z,44.59
2022-08-01T13:51:02.167Z,44.25
2022-08-01T13:53:41.221Z,44.55
2022-08-01T13:56:11.911Z,44.24
2022-08-01T13:58:45.342Z,44.29
2022-08-01T14:01:16.888Z,44.52
2022-08-01T14:03:48.130Z,44.66
2022-08-01T14:06:19.151Z,44.92
2022-08-01T14:08:51.143Z,44.68
2022-08-01T14:11:21.852Z,45.07
2022-08-01T14:13:55.634Z,44.73
2022-08-01T14:16:26.198Z,45.11
2022-08-01T14:18:58.888Z,45.11
2022-08-01T14:21:30.369Z,44.87
2022-08-01T14:24:01.879Z,45.04
2022-08-01T14:26:34.344Z,45.18
2022-08-01T14:29:11.620Z,45.19
2022-08-01T14:31:45.078Z,45.10
2022-08-01T14:34:18.743Z,44.91
2022-08-01T14:36:50.222Z,45.24
2022-08-01T14:39:22.591Z,45.14
2022-08-01T14:41:58.568Z,45.27
2022-08-01T14:44:33.313Z,45.33
2022-08-01T14:47:03.472Z,44.95
2022-08-01T14:49:51.323Z,44.98
2022-08-01T14:52:23.544Z,45.22
2022-08-01T14:54:54.841Z,45.59
2022-08-01T14:57:25.379Z,45.29
2022-08-01T14:59:59.367Z,45.55
2022-08-01T15:02:31.174Z,45.50
2022-08-01T15:05:02.394Z,45.68
2022-08-01T15:07:33.982Z,45.18
2022-08-01T15:10:06.260Z,44.95
2022-08-01T15:12:49.912Z,44.98
2022-08-01T15:15:24.493Z,45.64
2022-08-01T15:17:55.158Z,45.02
2022-08-01T15:20:26.662Z,45.42
2022-08-01T15:22:58.043Z,44.84
2022-08-01T15:25:41.899Z,45.00
2022-08-01T15:28:15.930Z,44.73
2022-08-01T15:30:49.598Z,45.34
2022-08-01T15:33:23.569Z,45.32
2022-08-01T15:35:56.580Z,45.03
2022-08-01T15:38:29.109Z,44.84
2022-08-01T15:41:01.048Z,44.82
2022-08-01T15:43:35.587Z,45.06
2022-08-01T15:46:16.943Z,45.06
2022-08-01T15:48:48.040Z,44.50
2022-08-01T15:51:19.999Z,45.32
2022-08-01T15:53:54.345Z,45.29
2022-08-01T15:56:25.990Z,45.18
2022-08-01T15:58:57.027Z,45.21
2022-08-01T16:01:31.495Z,45.38
2022-08-01T16:04:03.354Z,45.31
2022-08-01T16:06:34.229Z,45.38
2022-08-01T16:09:05.240Z,45.48
2022-08-01T16:11:40.911Z,44.87
2022-08-01T16:14:14.137Z,44.96
2022-08-01T16:16:49.975Z,45.26
2022-08-01T16:19:21.825Z,45.37
2022-08-01T16:21:53.109Z,44.91
2022-08-01T16:24:24.357Z,44.88
2022-08-01T16:26:56.069Z,45.35
2022-08-01T16:29:31.526Z,45.47
2022-08-01T16:32:11.499Z,44.88
2022-08-01T16:34:47.516Z,45.43
2022-08-01T16:37:18.737Z,44.86
2022-08-01T16:39:50.048Z,45.47
2022-08-01T16:42:20.997Z,45.02
2022-08-01T16:44:52.360Z,44.98
2022-08-01T16:47:25.524Z,45.47
2022-08-01T16:49:57.561Z,45.72
2022-08-01T16:52:28.963Z,45.73
2022-08-01T16:54:59.669Z,45.76
2022-08-01T16:57:35.903Z,45.36
2022-08-01T17:00:09.553Z,45.79
2022-08-01T17:02:46.424Z,45.51
2022-08-01T17:05:18.000Z,45.43
2022-08-01T17:07:49.087Z,45.46
2022-08-01T17:10:20.836Z,45.63
2022-08-01T17:12:51.625Z,46.42
2022-08-01T17:15:22.556Z,46.42
2022-08-01T17:17:56.578Z,46.24
2022-08-01T17:20:28.161Z,46.21
2022-08-01T17:22:59.019Z,46.50
2022-08-01T17:25:32.110Z,46.32
2022-08-01T17:28:04.346Z,46.08
2022-08-01T17:30:35.122Z,46.64
2022-08-01T17:33:09.373Z,46.75
2022-08-01T17:35:40.591Z,46.80
2022-08-01T17:38:12.451Z,46.79
2022-08-01T17:40:43.495Z,46.48
2022-08-01T17:43:14.727Z,46.46
2022-08-01T17:45:50.826Z,46.93
2022-08-01T17:48:24.886Z,46.66
2022-08-01T17:50:55.945Z,47.16
2022-08-01T17:53:27.123Z,46.65
2022-08-01T17:55:59.774Z,46.77
2022-08-01T17:58:36.608Z,46.71
2022-08-01T18:01:26.713Z,46.53
2022-08-01T18:04:01.028Z,47.19
2022-08-01T18:06:35.916Z,47.22
2022-08-01T18:09:11.064Z,47.14
2022-08-01T18:11:42.387Z,47.45
2022-08-01T18:14:15.253Z,47.47
2022-08-01T18:16:46.458Z,47.40
2022-08-01T18:19:21.776Z,46.90
2022-08-01T18:21:53.303Z,47.10
2022-08-01T18:24:24.961Z,47.61
2022-08-01T18:26:56.448Z,47.57
2022-08-01T18:29:48.095Z,47.01
2022-08-01T18:32:18.471Z,47.14
2022-08-01T18:34:51.437Z,47.25
2022-08-01T18:37:22.016Z,47.13
2022-08-01T18:39:58.545Z,47.65
2022-08-01T18:42:29.915Z,47.21
2022-08-01T18:45:00.951Z,47.82
2022-08-01T18:47:32.031Z,47.74
2022-08-01T18:50:04.631Z,47.89
2022-08-01T18:52:35.803Z,47.76
2022-08-01T18:55:06.926Z,47.71
2022-08-01T18:57:42.364Z,47.21
2022-08-01T19:00:16.006Z,47.68
2022-08-01T19:02:46.511Z,47.16
2022-08-01T19:05:19.993Z,47.78
2022-08-01T19:08:04.893Z,47.70
2022-08-01T19:10:39.172Z,47.92
2022-08-01T19:13:10.736Z,47.48
2022-08-01T19:15:41.594Z,47.38
2022-08-01T19:18:12.675Z,47.51
2022-08-01T19:20:46.984Z,47.96
2022-08-01T19:23:34.722Z,47.50
2022-08-01T19:26:13.211Z,48.22
2022-08-01T19:28:49.413Z,48.20
2022-08-01T19:31:25.622Z,48.39
2022-08-01T19:33:58.109Z,48.27
2022-08-01T19:36:30.825Z,48.41
2022-08-01T19:39:04.322Z,47.90
2022-08-01T19:41:36.143Z,48.12
2022-08-01T19:44:10.495Z,47.96
2022-08-01T19:46:43.620Z,47.82
2022-08-01T19:49:17.192Z,48.15
2022-08-01T19:51:55.063Z,48.30
2022-08-01T19:54:34.746Z,47.70
2022-08-01T19:57:08.755Z,48.54
2022-08-01T19:59:41.241Z,48.01
2022-08-01T20:02:11.861Z,47.98
2022-08-01T20:04:45.742Z,48.15
2022-08-01T20:07:19.255Z,47.88
2022-08-01T20:09:54.254Z,48.15
2022-08-01T20:12:25.223Z,48.20
2022-08-01T20:14:56.870Z,48.02
2022-08-01T20:17:28.627Z,48.18
2022-08-01T20:19:59.682Z,48.00
2022-08-01T20:22:36.275Z,48.33
2022-08-01T20:25:09.368Z,48.38
2022-08-01T20:27:47.237Z,48.21
2022-08-01T20:30:19.306Z,48.91
2022-08-01T20:32:52.211Z,48.76
2022-08-01T20:35:52.355Z,48.71
2022-08-01T20:38:27.763Z,48.92
2022-08-01T20:41:00.161Z,48.43
2022-08-01T20:43:31.231Z,48.69
2022-08-01T20:46:04.135Z,48.91
2022-08-01T20:48:35.032Z,48.86
2022-08-01T20:51:19.351Z,48.76
2022-08-01T20:53:53.296Z,48.88
2022-08-01T20:56:38.093Z,48.31
2022-08-01T20:59:51.578Z,48.66
2022-08-01T21:02:19.107Z,48.65
2022-08-01T21:05:01.537Z,48.69
2022-08-01T21:07:37.833Z,48.97
2022-08-01T21:10:14.086Z,49.06
2022-08-01T21:12:50.179Z,49.07
2022-08-01T21:15:32.423Z,48.87
2022-08-01T21:18:10.798Z,48.71
2022-08-01T21:20:46.847Z,48.90
2022-08-01T21:23:30.084Z,48.88
2022-08-01T21:26:04.480Z,48.48
2022-08-01T21:28:39.161Z,48.06
2022-08-01T21:31:13.295Z,48.68
2022-08-01T21:34:02.390Z,48.80
2022-08-01T21:36:35.053Z,48.21
2022-08-01T21:39:08.498Z,48.51
2022-08-01T21:42:01.313Z,48.33
2022-08-01T21:44:36.942Z,48.94
2022-08-01T21:47:11.808Z,48.18
2022-08-01T21:49:43.697Z,48.16
2022-08-01T21:52:21.730Z,48.30
2022-08-01T21:55:10.772Z,48.47
2022-08-01T21:58:19.920Z,48.33
2022-08-01T22:00:59.394Z,48.25
2022-08-01T22:03:45.192Z,48.70
2022-08-01T22:06:18.520Z,48.42
2022-08-01T22:08:54.538Z,48.33
2022-08-01T22:11:30.874Z,48.72
2022-08-01T22:14:09.996Z,48.00
2022-08-01T22:16:43.168Z,48.33
2022-08-01T22:19:29.589Z,48.21
2022-08-01T22:22:32.405Z,48.59
2022-08-01T22:24:59.219Z,48.93
2022-08-01T22:28:03.132Z,48.59
2022-08-01T22:30:23.906Z,48.98
2022-08-01T22:33:07.538Z,48.57
2022-08-01T22:35:49.763Z,48.27
2022-08-01T22:38:23.037Z,48.59
2022-08-01T22:40:58.186Z,48.90
2022-08-01T22:43:38.827Z,48.45
2022-08-01T22:46:27.805Z,48.54
2022-08-01T22:49:11.358Z,48.58
2022-08-01T22:51:59.238Z,48.17
2022-08-01T22:54:43.218Z,48.21
2022-08-01T22:57:27.041Z,48.73
2022-08-01T23:00:05.107Z,48.38
2022-08-01T23:02:48.487Z,48.94
2022-08-01T23:05:28.923Z,48.34
2022-08-01T23:08:06.287Z,48.24
2022-08-01T23:10:46.035Z,48.66
2022-08-01T23:13:20.219Z,48.24
2022-08-01T23:15:52.762Z,48.99
2022-08-01T23:18:25.946Z,49.00
2022-08-01T23:21:01.606Z,48.84
2022-08-01T23:23:34.528Z,48.79
2022-08-01T23:26:06.652Z,48.59
2022-08-01T23:28:39.710Z,49.10
2022-08-01T23:31:13.652Z,49.07
2022-08-01T23:33:47.463Z,49.02
2022-08-01T23:36:18.624Z,48.99
2022-08-01T23:38:49.988Z,48.69
2022-08-01T23:41:20.929Z,48.68
2022-08-01T23:43:52.632Z,49.00
2022-08-01T23:46:23.904Z,48.67
2022-08-01T23:48:57.077Z,49.31
2022-08-01T23:51:28.220Z,48.95
2022-08-01T23:53:59.417Z,48.82
2022-08-01T23:56:32.645Z,49.40
2022-08-01T23:59:04.293Z,49.20
